sensor_id;sensor_type;location;lat;lon;timestamp;pressure;altitude;pressure_sealevel;temperature
67966;BMP280;54749;47.850;9.002;2024-03-23T00:59:14;95372.81;;;4.88
67966;BMP280;54749;47.850;9.002;2024-03-23T01:01:40;95367.69;;;4.89
67966;BMP280;54749;47.850;9.002;2024-03-23T01:04:06;95377.91;;;4.87
67966;BMP280;54749;47.850;9.002;2024-03-23T01:58:27;95301.06;;;5.25
67966;BMP280;54749;47.850;9.002;2024-03-23T02:48:33;95217.31;;;5.76
67966;BMP280;54749;47.850;9.002;2024-03-23T02:50:59;95211.09;;;5.81
67966;BMP280;54749;47.850;9.002;2024-03-23T02:53:25;95208.41;;;5.84
67966;BMP280;54749;47.850;9.002;2024-03-23T03:02:32;95193.44;;;5.83
67966;BMP280;54749;47.850;9.002;2024-03-23T03:32:55;95190.94;;;5.83
67966;BMP280;54749;47.850;9.002;2024-03-23T03:35:21;95189.97;;;5.73
67966;BMP280;54749;47.850;9.002;2024-03-23T03:37:47;95184.38;;;5.70
67966;BMP280;54749;47.850;9.002;2024-03-23T03:40:13;95184.47;;;5.68
67966;BMP280;54749;47.850;9.002;2024-03-23T03:42:43;95176.94;;;5.68
67966;BMP280;54749;47.850;9.002;2024-03-23T03:45:14;95185.38;;;5.67
67966;BMP280;54749;47.850;9.002;2024-03-23T03:47:40;95174.34;;;5.70
67966;BMP280;54749;47.850;9.002;2024-03-23T03:50:06;95171.53;;;5.74
67966;BMP280;54749;47.850;9.002;2024-03-23T03:52:33;95167.00;;;5.79
67966;BMP280;54749;47.850;9.002;2024-03-23T03:55:12;95157.47;;;5.84
67966;BMP280;54749;47.850;9.002;2024-03-23T03:57:38;95152.00;;;5.90
67966;BMP280;54749;47.850;9.002;2024-03-23T04:00:05;95154.41;;;5.91
67966;BMP280;54749;47.850;9.002;2024-03-23T04:02:31;95146.41;;;5.86
67966;BMP280;54749;47.850;9.002;2024-03-23T04:04:57;95141.72;;;5.82
67966;BMP280;54749;47.850;9.002;2024-03-23T04:07:23;95127.78;;;5.78
67966;BMP280;54749;47.850;9.002;2024-03-23T04:09:49;95124.00;;;5.73
67966;BMP280;54749;47.850;9.002;2024-03-23T04:12:15;95128.44;;;5.69
67966;BMP280;54749;47.850;9.002;2024-03-23T04:14:41;95119.53;;;5.65
67966;BMP280;54749;47.850;9.002;2024-03-23T04:17:08;95116.94;;;5.67
67966;BMP280;54749;47.850;9.002;2024-03-23T04:19:34;95109.50;;;5.65
67966;BMP280;54749;47.850;9.002;2024-03-23T04:22:03;95096.19;;;5.65
67966;BMP280;54749;47.850;9.002;2024-03-23T04:24:29;95082.91;;;5.63
67966;BMP280;54749;47.850;9.002;2024-03-23T04:26:57;95082.13;;;5.62
67966;BMP280;54749;47.850;9.002;2024-03-23T04:29:24;95074.81;;;5.59
67966;BMP280;54749;47.850;9.002;2024-03-23T04:31:50;95070.94;;;5.56
67966;BMP280;54749;47.850;9.002;2024-03-23T04:34:16;95072.94;;;5.51
67966;BMP280;54749;47.850;9.002;2024-03-23T04:36:44;95062.34;;;5.47
67966;BMP280;54749;47.850;9.002;2024-03-23T04:39:11;95050.72;;;5.46
67966;BMP280;54749;47.850;9.002;2024-03-23T04:41:37;95050.63;;;5.48
67966;BMP280;54749;47.850;9.002;2024-03-23T04:44:04;95048.44;;;5.43
67966;BMP280;54749;47.850;9.002;2024-03-23T04:46:34;95056.19;;;5.41
67966;BMP280;54749;47.850;9.002;2024-03-23T04:49:00;95051.97;;;5.41
67966;BMP280;54749;47.850;9.002;2024-03-23T04:51:26;95045.72;;;5.46
67966;BMP280;54749;47.850;9.002;2024-03-23T04:53:53;95044.41;;;5.53
67966;BMP280;54749;47.850;9.002;2024-03-23T04:56:23;95040.00;;;5.67
67966;BMP280;54749;47.850;9.002;2024-03-23T04:58:49;95040.97;;;5.77
67966;BMP280;54749;47.850;9.002;2024-03-23T05:01:15;95041.34;;;5.83
67966;BMP280;54749;47.850;9.002;2024-03-23T05:03:42;95033.50;;;5.88
67966;BMP280;54749;47.850;9.002;2024-03-23T05:06:08;95028.25;;;5.91
67966;BMP280;54749;47.850;9.002;2024-03-23T05:08:34;95031.22;;;5.95
67966;BMP280;54749;47.850;9.002;2024-03-23T05:11:00;95038.41;;;6.00
67966;BMP280;54749;47.850;9.002;2024-03-23T05:13:26;95026.94;;;6.08
67966;BMP280;54749;47.850;9.002;2024-03-23T05:32:04;95095.88;;;7.11
67966;BMP280;54749;47.850;9.002;2024-03-23T05:48:31;95058.94;;;7.44
67966;BMP280;54749;47.850;9.002;2024-03-23T05:50:58;95065.78;;;7.42
67966;BMP280;54749;47.850;9.002;2024-03-23T05:53:24;95057.59;;;7.40
67966;BMP280;54749;47.850;9.002;2024-03-23T06:02:05;95059.94;;;7.52
67966;BMP280;54749;47.850;9.002;2024-03-23T06:10:46;95047.69;;;7.89
67966;BMP280;54749;47.850;9.002;2024-03-23T06:26:55;95081.06;;;8.71
67966;BMP280;54749;47.850;9.002;2024-03-23T06:33:42;95074.03;;;8.94
67966;BMP280;54749;47.850;9.002;2024-03-23T06:36:41;95074.88;;;9.04
67966;BMP280;54749;47.850;9.002;2024-03-23T06:40:01;95092.41;;;9.14
67966;BMP280;54749;47.850;9.002;2024-03-23T06:46:33;95090.22;;;9.30
67966;BMP280;54749;47.850;9.002;2024-03-23T06:49:01;95097.66;;;9.41
67966;BMP280;54749;47.850;9.002;2024-03-23T06:51:40;95094.38;;;9.49
67966;BMP280;54749;47.850;9.002;2024-03-23T06:54:09;95104.75;;;9.56
67966;BMP280;54749;47.850;9.002;2024-03-23T06:56:44;95113.91;;;9.66
67966;BMP280;54749;47.850;9.002;2024-03-23T06:59:12;95116.38;;;9.77
67966;BMP280;54749;47.850;9.002;2024-03-23T07:01:44;95119.72;;;9.86
67966;BMP280;54749;47.850;9.002;2024-03-23T07:04:10;95114.81;;;9.94
67966;BMP280;54749;47.850;9.002;2024-03-23T07:06:50;95124.63;;;10.06
67966;BMP280;54749;47.850;9.002;2024-03-23T07:09:23;95112.44;;;10.11
67966;BMP280;54749;47.850;9.002;2024-03-23T07:12:04;95115.06;;;10.19
67966;BMP280;54749;47.850;9.002;2024-03-23T07:14:30;95107.09;;;10.32
67966;BMP280;54749;47.850;9.002;2024-03-23T07:16:56;95114.66;;;10.51
67966;BMP280;54749;47.850;9.002;2024-03-23T07:19:23;95118.22;;;10.67
67966;BMP280;54749;47.850;9.002;2024-03-23T07:21:51;95123.38;;;10.84
67966;BMP280;54749;47.850;9.002;2024-03-23T07:24:16;95141.59;;;10.87
67966;BMP280;54749;47.850;9.002;2024-03-23T07:26:43;95136.13;;;10.83
67966;BMP280;54749;47.850;9.002;2024-03-23T07:29:09;95140.03;;;10.77
67966;BMP280;54749;47.850;9.002;2024-03-23T07:31:35;95170.75;;;10.73
67966;BMP280;54749;47.850;9.002;2024-03-23T07:34:02;95203.09;;;10.60
67966;BMP280;54749;47.850;9.002;2024-03-23T07:36:29;95206.13;;;10.36
67966;BMP280;54749;47.850;9.002;2024-03-23T07:38:55;95168.84;;;9.82
67966;BMP280;54749;47.850;9.002;2024-03-23T07:41:22;95218.56;;;10.10
67966;BMP280;54749;47.850;9.002;2024-03-23T07:43:48;95224.47;;;10.29
67966;BMP280;54749;47.850;9.002;2024-03-23T07:46:15;95241.72;;;10.24
67966;BMP280;54749;47.850;9.002;2024-03-23T07:48:42;95275.97;;;10.08
67966;BMP280;54749;47.850;9.002;2024-03-23T07:51:10;95285.31;;;9.87
67966;BMP280;54749;47.850;9.002;2024-03-23T07:53:37;95279.22;;;9.70
67966;BMP280;54749;47.850;9.002;2024-03-23T07:58:29;95288.25;;;9.63
67966;BMP280;54749;47.850;9.002;2024-03-23T08:00:56;95309.38;;;9.71
67966;BMP280;54749;47.850;9.002;2024-03-23T08:03:29;95322.94;;;9.90
67966;BMP280;54749;47.850;9.002;2024-03-23T08:05:55;95319.50;;;9.91
67966;BMP280;54749;47.850;9.002;2024-03-23T08:08:21;95326.13;;;9.92
67966;BMP280;54749;47.850;9.002;2024-03-23T08:10:51;95330.84;;;9.77
67966;BMP280;54749;47.850;9.002;2024-03-23T08:13:18;95346.44;;;9.91
67966;BMP280;54749;47.850;9.002;2024-03-23T08:15:46;95360.19;;;9.78
67966;BMP280;54749;47.850;9.002;2024-03-23T08:18:13;95349.31;;;9.66
67966;BMP280;54749;47.850;9.002;2024-03-23T08:20:39;95380.69;;;9.53
67966;BMP280;54749;47.850;9.002;2024-03-23T08:23:06;95382.25;;;9.45
67966;BMP280;54749;47.850;9.002;2024-03-23T08:25:32;95384.22;;;9.42
67966;BMP280;54749;47.850;9.002;2024-03-23T08:27:59;95385.56;;;9.45
67966;BMP280;54749;47.850;9.002;2024-03-23T08:30:25;95414.00;;;9.47
67966;BMP280;54749;47.850;9.002;2024-03-23T08:32:51;95406.06;;;9.52
67966;BMP280;54749;47.850;9.002;2024-03-23T08:35:18;95409.97;;;9.45
67966;BMP280;54749;47.850;9.002;2024-03-23T08:37:43;95411.13;;;9.52
67966;BMP280;54749;47.850;9.002;2024-03-23T08:40:10;95427.00;;;9.52
67966;BMP280;54749;47.850;9.002;2024-03-23T08:42:36;95423.66;;;9.62
67966;BMP280;54749;47.850;9.002;2024-03-23T08:45:02;95430.97;;;9.45
67966;BMP280;54749;47.850;9.002;2024-03-23T08:47:28;95437.59;;;9.46
67966;BMP280;54749;47.850;9.002;2024-03-23T08:49:54;95436.88;;;9.55
67966;BMP280;54749;47.850;9.002;2024-03-23T08:52:20;95447.13;;;9.74
67966;BMP280;54749;47.850;9.002;2024-03-23T08:54:49;95454.91;;;9.81
67966;BMP280;54749;47.850;9.002;2024-03-23T08:57:14;95458.78;;;9.85
67966;BMP280;54749;47.850;9.002;2024-03-23T08:59:41;95459.22;;;9.90
67966;BMP280;54749;47.850;9.002;2024-03-23T09:02:07;95467.69;;;10.09
67966;BMP280;54749;47.850;9.002;2024-03-23T09:04:33;95470.66;;;9.94
67966;BMP280;54749;47.850;9.002;2024-03-23T09:06:59;95492.56;;;9.63
67966;BMP280;54749;47.850;9.002;2024-03-23T09:09:26;95489.88;;;9.75
67966;BMP280;54749;47.850;9.002;2024-03-23T09:11:52;95483.56;;;9.70
67966;BMP280;54749;47.850;9.002;2024-03-23T09:14:18;95499.06;;;9.65
67966;BMP280;54749;47.850;9.002;2024-03-23T09:16:44;95497.38;;;9.77
67966;BMP280;54749;47.850;9.002;2024-03-23T09:19:10;95490.28;;;9.60
67966;BMP280;54749;47.850;9.002;2024-03-23T09:21:36;95493.25;;;9.65
67966;BMP280;54749;47.850;9.002;2024-03-23T09:24:02;95501.81;;;9.73
67966;BMP280;54749;47.850;9.002;2024-03-23T09:26:28;95520.16;;;9.75
67966;BMP280;54749;47.850;9.002;2024-03-23T09:28:55;95509.06;;;9.78
67966;BMP280;54749;47.850;9.002;2024-03-23T09:31:21;95523.34;;;9.88
67966;BMP280;54749;47.850;9.002;2024-03-23T09:33:48;95503.84;;;10.10
67966;BMP280;54749;47.850;9.002;2024-03-23T09:36:14;95492.38;;;11.22
67966;BMP280;54749;47.850;9.002;2024-03-23T09:38:41;95481.91;;;12.10
67966;BMP280;54749;47.850;9.002;2024-03-23T09:41:07;95473.25;;;13.28
67966;BMP280;54749;47.850;9.002;2024-03-23T09:43:34;95464.84;;;13.79
67966;BMP280;54749;47.850;9.002;2024-03-23T09:46:01;95478.84;;;13.05
67966;BMP280;54749;47.850;9.002;2024-03-23T09:48:29;95493.75;;;12.82
67966;BMP280;54749;47.850;9.002;2024-03-23T09:50:55;95482.66;;;13.96
67966;BMP280;54749;47.850;9.002;2024-03-23T09:53:21;95492.09;;;14.45
67966;BMP280;54749;47.850;9.002;2024-03-23T09:55:48;95487.69;;;14.79
67966;BMP280;54749;47.850;9.002;2024-03-23T09:58:17;95498.44;;;14.66
67966;BMP280;54749;47.850;9.002;2024-03-23T10:00:43;95504.69;;;13.78
67966;BMP280;54749;47.850;9.002;2024-03-23T10:03:09;95501.13;;;13.11
67966;BMP280;54749;47.850;9.002;2024-03-23T10:05:37;95510.31;;;13.12
67966;BMP280;54749;47.850;9.002;2024-03-23T10:10:39;95513.25;;;13.77
67966;BMP280;54749;47.850;9.002;2024-03-23T10:13:05;95525.16;;;12.72
67966;BMP280;54749;47.850;9.002;2024-03-23T10:15:34;95535.03;;;13.10
67966;BMP280;54749;47.850;9.002;2024-03-23T10:18:19;95509.78;;;13.78
67966;BMP280;54749;47.850;9.002;2024-03-23T10:20:51;95506.78;;;13.48
67966;BMP280;54749;47.850;9.002;2024-03-23T10:23:17;95517.88;;;13.21
67966;BMP280;54749;47.850;9.002;2024-03-23T10:25:43;95508.97;;;12.82
67966;BMP280;54749;47.850;9.002;2024-03-23T10:28:10;95498.13;;;14.69
67966;BMP280;54749;47.850;9.002;2024-03-23T10:30:37;95491.19;;;16.23
67966;BMP280;54749;47.850;9.002;2024-03-23T10:33:10;95512.91;;;15.71
67966;BMP280;54749;47.850;9.002;2024-03-23T10:35:37;95491.16;;;15.36
67966;BMP280;54749;47.850;9.002;2024-03-23T10:38:07;95498.03;;;15.51
67966;BMP280;54749;47.850;9.002;2024-03-23T10:40:34;95485.59;;;15.96
67966;BMP280;54749;47.850;9.002;2024-03-23T10:43:02;95488.53;;;16.93
67966;BMP280;54749;47.850;9.002;2024-03-23T10:45:29;95478.75;;;18.23
67966;BMP280;54749;47.850;9.002;2024-03-23T10:47:55;95470.69;;;19.88
67966;BMP280;54749;47.850;9.002;2024-03-23T10:50:22;95481.88;;;20.01
67966;BMP280;54749;47.850;9.002;2024-03-23T10:52:49;95472.34;;;20.57
67966;BMP280;54749;47.850;9.002;2024-03-23T10:55:19;95495.72;;;18.95
67966;BMP280;54749;47.850;9.002;2024-03-23T10:57:57;95509.47;;;19.23
67966;BMP280;54749;47.850;9.002;2024-03-23T11:00:25;95488.34;;;19.98
67966;BMP280;54749;47.850;9.002;2024-03-23T11:02:52;95504.44;;;20.67
67966;BMP280;54749;47.850;9.002;2024-03-23T11:05:28;95490.84;;;22.37
67966;BMP280;54749;47.850;9.002;2024-03-23T11:07:54;95491.03;;;22.16
67966;BMP280;54749;47.850;9.002;2024-03-23T11:10:30;95503.72;;;21.33
67966;BMP280;54749;47.850;9.002;2024-03-23T11:12:57;95487.09;;;22.33
67966;BMP280;54749;47.850;9.002;2024-03-23T11:15:23;95483.34;;;22.86
67966;BMP280;54749;47.850;9.002;2024-03-23T11:18:06;95488.59;;;20.64
67966;BMP280;54749;47.850;9.002;2024-03-23T11:20:34;95473.75;;;19.78
67966;BMP280;54749;47.850;9.002;2024-03-23T11:23:01;95470.63;;;19.33
67966;BMP280;54749;47.850;9.002;2024-03-23T11:25:27;95456.84;;;19.20
67966;BMP280;54749;47.850;9.002;2024-03-23T11:27:55;95452.78;;;19.26
67966;BMP280;54749;47.850;9.002;2024-03-23T11:30:23;95457.28;;;19.10
67966;BMP280;54749;47.850;9.002;2024-03-23T11:32:51;95453.59;;;18.70
67966;BMP280;54749;47.850;9.002;2024-03-23T11:35:32;95457.91;;;18.11
67966;BMP280;54749;47.850;9.002;2024-03-23T11:38:15;95449.84;;;18.36
67966;BMP280;54749;47.850;9.002;2024-03-23T11:40:46;95459.63;;;17.08
67966;BMP280;54749;47.850;9.002;2024-03-23T11:43:14;95465.25;;;16.80
67966;BMP280;54749;47.850;9.002;2024-03-23T11:45:50;95451.50;;;17.04
67966;BMP280;54749;47.850;9.002;2024-03-23T11:48:22;95460.28;;;16.86
67966;BMP280;54749;47.850;9.002;2024-03-23T11:50:50;95460.00;;;16.74
67966;BMP280;54749;47.850;9.002;2024-03-23T11:55:59;95447.28;;;16.66
67966;BMP280;54749;47.850;9.002;2024-03-23T11:58:27;95440.44;;;17.12
67966;BMP280;54749;47.850;9.002;2024-03-23T12:00:56;95454.41;;;17.31
67966;BMP280;54749;47.850;9.002;2024-03-23T12:03:24;95455.13;;;17.18
67966;BMP280;54749;47.850;9.002;2024-03-23T12:05:57;95466.78;;;16.20
67966;BMP280;54749;47.850;9.002;2024-03-23T12:08:32;95464.53;;;15.23
67966;BMP280;54749;47.850;9.002;2024-03-23T12:11:09;95487.50;;;14.73
67966;BMP280;54749;47.850;9.002;2024-03-23T12:13:38;95487.69;;;14.54
67966;BMP280;54749;47.850;9.002;2024-03-23T12:16:17;95516.03;;;14.01
67966;BMP280;54749;47.850;9.002;2024-03-23T12:18:44;95532.84;;;13.24
67966;BMP280;54749;47.850;9.002;2024-03-23T12:21:11;95559.41;;;12.94
67966;BMP280;54749;47.850;9.002;2024-03-23T12:23:41;95565.13;;;12.87
67966;BMP280;54749;47.850;9.002;2024-03-23T12:26:07;95576.03;;;12.61
67966;BMP280;54749;47.850;9.002;2024-03-23T12:28:33;95570.41;;;12.39
67966;BMP280;54749;47.850;9.002;2024-03-23T12:30:59;95571.59;;;12.54
67966;BMP280;54749;47.850;9.002;2024-03-23T12:33:25;95578.44;;;12.62
67966;BMP280;54749;47.850;9.002;2024-03-23T12:35:52;95586.16;;;12.06
67966;BMP280;54749;47.850;9.002;2024-03-23T12:38:19;95582.97;;;11.94
67966;BMP280;54749;47.850;9.002;2024-03-23T12:40:49;95596.03;;;11.90
67966;BMP280;54749;47.850;9.002;2024-03-23T12:43:16;95599.28;;;11.54
67966;BMP280;54749;47.850;9.002;2024-03-23T12:45:46;95620.72;;;11.20
67966;BMP280;54749;47.850;9.002;2024-03-23T12:48:13;95623.28;;;10.41
67966;BMP280;54749;47.850;9.002;2024-03-23T12:50:38;95618.50;;;10.07
67966;BMP280;54749;47.850;9.002;2024-03-23T12:53:05;95601.47;;;10.20
67966;BMP280;54749;47.850;9.002;2024-03-23T12:55:30;95591.72;;;10.15
67966;BMP280;54749;47.850;9.002;2024-03-23T12:57:56;95587.00;;;10.42
67966;BMP280;54749;47.850;9.002;2024-03-23T13:00:22;95577.84;;;10.70
67966;BMP280;54749;47.850;9.002;2024-03-23T13:02:48;95583.84;;;10.69
67966;BMP280;54749;47.850;9.002;2024-03-23T13:05:14;95573.03;;;10.87
67966;BMP280;54749;47.850;9.002;2024-03-23T13:07:41;95553.03;;;11.13
67966;BMP280;54749;47.850;9.002;2024-03-23T13:10:07;95556.78;;;11.57
67966;BMP280;54749;47.850;9.002;2024-03-23T13:12:33;95557.47;;;11.59
67966;BMP280;54749;47.850;9.002;2024-03-23T13:15:00;95546.56;;;11.77
67966;BMP280;54749;47.850;9.002;2024-03-23T13:17:27;95549.06;;;11.58
67966;BMP280;54749;47.850;9.002;2024-03-23T13:19:55;95544.28;;;11.56
67966;BMP280;54749;47.850;9.002;2024-03-23T13:22:22;95537.63;;;11.91
67966;BMP280;54749;47.850;9.002;2024-03-23T13:24:48;95530.97;;;12.00
67966;BMP280;54749;47.850;9.002;2024-03-23T13:27:14;95526.19;;;12.06
67966;BMP280;54749;47.850;9.002;2024-03-23T13:29:40;95519.25;;;11.99
67966;BMP280;54749;47.850;9.002;2024-03-23T13:32:06;95529.78;;;11.94
67966;BMP280;54749;47.850;9.002;2024-03-23T13:34:32;95525.66;;;11.84
67966;BMP280;54749;47.850;9.002;2024-03-23T13:37:01;95521.13;;;11.88
67966;BMP280;54749;47.850;9.002;2024-03-23T13:39:27;95519.50;;;11.59
67966;BMP280;54749;47.850;9.002;2024-03-23T13:41:53;95520.38;;;11.30
67966;BMP280;54749;47.850;9.002;2024-03-23T13:44:21;95517.59;;;11.04
67966;BMP280;54749;47.850;9.002;2024-03-23T13:46:48;95510.06;;;11.22
67966;BMP280;54749;47.850;9.002;2024-03-23T13:49:28;95513.88;;;11.37
67966;BMP280;54749;47.850;9.002;2024-03-23T13:51:55;95513.22;;;11.54
67966;BMP280;54749;47.850;9.002;2024-03-23T13:54:23;95512.25;;;11.36
67966;BMP280;54749;47.850;9.002;2024-03-23T13:56:56;95502.03;;;11.65
67966;BMP280;54749;47.850;9.002;2024-03-23T13:59:22;95491.50;;;12.16
67966;BMP280;54749;47.850;9.002;2024-03-23T14:01:51;95482.97;;;12.17
67966;BMP280;54749;47.850;9.002;2024-03-23T14:04:17;95490.59;;;12.08
67966;BMP280;54749;47.850;9.002;2024-03-23T14:06:45;95481.22;;;12.17
67966;BMP280;54749;47.850;9.002;2024-03-23T14:09:12;95494.19;;;11.87
67966;BMP280;54749;47.850;9.002;2024-03-23T14:11:38;95488.59;;;11.65
67966;BMP280;54749;47.850;9.002;2024-03-23T14:14:04;95480.34;;;11.54
67966;BMP280;54749;47.850;9.002;2024-03-23T14:16:31;95483.94;;;11.51
67966;BMP280;54749;47.850;9.002;2024-03-23T14:18:57;95482.19;;;11.52
67966;BMP280;54749;47.850;9.002;2024-03-23T14:21:23;95500.41;;;11.27
67966;BMP280;54749;47.850;9.002;2024-03-23T14:23:49;95490.75;;;11.21
67966;BMP280;54749;47.850;9.002;2024-03-23T14:26:16;95503.28;;;11.23
67966;BMP280;54749;47.850;9.002;2024-03-23T14:28:42;95494.47;;;10.99
67966;BMP280;54749;47.850;9.002;2024-03-23T14:31:08;95503.88;;;10.97
67966;BMP280;54749;47.850;9.002;2024-03-23T14:33:37;95490.06;;;11.01
67966;BMP280;54749;47.850;9.002;2024-03-23T14:36:04;95479.00;;;10.93
67966;BMP280;54749;47.850;9.002;2024-03-23T14:38:30;95480.44;;;10.95
67966;BMP280;54749;47.850;9.002;2024-03-23T14:41:00;95483.94;;;10.94
67966;BMP280;54749;47.850;9.002;2024-03-23T14:43:26;95471.53;;;11.01
67966;BMP280;54749;47.850;9.002;2024-03-23T14:48:32;95476.22;;;11.05
67966;BMP280;54749;47.850;9.002;2024-03-23T14:50:58;95480.88;;;11.00
67966;BMP280;54749;47.850;9.002;2024-03-23T14:53:31;95455.94;;;10.86
67966;BMP280;54749;47.850;9.002;2024-03-23T14:55:57;95456.19;;;10.84
67966;BMP280;54749;47.850;9.002;2024-03-23T14:58:23;95466.56;;;10.81
67966;BMP280;54749;47.850;9.002;2024-03-23T15:00:50;95464.19;;;10.88
67966;BMP280;54749;47.850;9.002;2024-03-23T15:03:18;95447.97;;;10.82
67966;BMP280;54749;47.850;9.002;2024-03-23T15:05:55;95466.19;;;10.47
67966;BMP280;54749;47.850;9.002;2024-03-23T15:08:21;95458.50;;;10.57
67966;BMP280;54749;47.850;9.002;2024-03-23T15:10:48;95452.38;;;10.50
67966;BMP280;54749;47.850;9.002;2024-03-23T15:13:14;95447.84;;;10.54
67966;BMP280;54749;47.850;9.002;2024-03-23T15:15:41;95463.72;;;10.36
67966;BMP280;54749;47.850;9.002;2024-03-23T15:18:12;95447.97;;;10.23
67966;BMP280;54749;47.850;9.002;2024-03-23T15:20:39;95450.81;;;10.10
67966;BMP280;54749;47.850;9.002;2024-03-23T15:23:05;95439.84;;;10.00
67966;BMP280;54749;47.850;9.002;2024-03-23T15:25:31;95438.72;;;10.04
67966;BMP280;54749;47.850;9.002;2024-03-23T15:27:58;95440.88;;;10.17
67966;BMP280;54749;47.850;9.002;2024-03-23T15:30:26;95441.13;;;10.34
67966;BMP280;54749;47.850;9.002;2024-03-23T15:32:52;95432.50;;;10.37
67966;BMP280;54749;47.850;9.002;2024-03-23T15:35:18;95435.25;;;10.25
67966;BMP280;54749;47.850;9.002;2024-03-23T15:37:47;95433.84;;;10.12
67966;BMP280;54749;47.850;9.002;2024-03-23T15:40:13;95435.84;;;10.17
67966;BMP280;54749;47.850;9.002;2024-03-23T15:42:39;95447.88;;;10.05
67966;BMP280;54749;47.850;9.002;2024-03-23T15:45:08;95453.47;;;9.88
67966;BMP280;54749;47.850;9.002;2024-03-23T15:47:35;95464.00;;;9.62
67966;BMP280;54749;47.850;9.002;2024-03-23T15:50:01;95457.63;;;9.28
67966;BMP280;54749;47.850;9.002;2024-03-23T15:52:29;95464.38;;;9.27
67966;BMP280;54749;47.850;9.002;2024-03-23T15:54:55;95450.66;;;9.21
67966;BMP280;54749;47.850;9.002;2024-03-23T15:57:23;95440.69;;;9.19
67966;BMP280;54749;47.850;9.002;2024-03-23T15:59:50;95432.59;;;9.36
67966;BMP280;54749;47.850;9.002;2024-03-23T16:02:16;95427.53;;;9.46
67966;BMP280;54749;47.850;9.002;2024-03-23T16:04:42;95437.59;;;9.46
67966;BMP280;54749;47.850;9.002;2024-03-23T16:07:11;95444.72;;;9.42
67966;BMP280;54749;47.850;9.002;2024-03-23T16:09:37;95448.16;;;9.41
67966;BMP280;54749;47.850;9.002;2024-03-23T16:12:03;95456.09;;;9.36
67966;BMP280;54749;47.850;9.002;2024-03-23T16:14:30;95461.19;;;9.26
67966;BMP280;54749;47.850;9.002;2024-03-23T16:16:55;95482.19;;;9.15
67966;BMP280;54749;47.850;9.002;2024-03-23T16:19:21;95503.19;;;8.94
67966;BMP280;54749;47.850;9.002;2024-03-23T16:21:48;95529.19;;;8.63
67966;BMP280;54749;47.850;9.002;2024-03-23T16:24:14;95501.47;;;8.41
67966;BMP280;54749;47.850;9.002;2024-03-23T16:26:40;95494.38;;;8.68
67966;BMP280;54749;47.850;9.002;2024-03-23T16:29:06;95485.53;;;8.84
67966;BMP280;54749;47.850;9.002;2024-03-23T16:31:32;95472.25;;;8.92
67966;BMP280;54749;47.850;9.002;2024-03-23T16:33:59;95472.94;;;8.94
67966;BMP280;54749;47.850;9.002;2024-03-23T16:36:24;95467.47;;;8.79
67966;BMP280;54749;47.850;9.002;2024-03-23T16:38:51;95470.34;;;8.64
67966;BMP280;54749;47.850;9.002;2024-03-23T16:41:17;95473.09;;;8.50
67966;BMP280;54749;47.850;9.002;2024-03-23T16:43:44;95466.22;;;8.41
67966;BMP280;54749;47.850;9.002;2024-03-23T16:46:12;95465.31;;;8.32
67966;BMP280;54749;47.850;9.002;2024-03-23T16:48:38;95453.63;;;8.09
67966;BMP280;54749;47.850;9.002;2024-03-23T16:51:09;95459.53;;;7.98
67966;BMP280;54749;47.850;9.002;2024-03-23T16:53:36;95455.16;;;7.89
67966;BMP280;54749;47.850;9.002;2024-03-23T16:56:04;95459.47;;;7.76
67966;BMP280;54749;47.850;9.002;2024-03-23T16:58:34;95454.88;;;7.70
67966;BMP280;54749;47.850;9.002;2024-03-23T17:03:30;95460.69;;;7.60
67966;BMP280;54749;47.850;9.002;2024-03-23T17:05:56;95451.63;;;7.58
67966;BMP280;54749;47.850;9.002;2024-03-23T17:08:22;95455.41;;;7.52
67966;BMP280;54749;47.850;9.002;2024-03-23T17:10:48;95464.09;;;7.49
67966;BMP280;54749;47.850;9.002;2024-03-23T17:13:14;95453.44;;;7.45
67966;BMP280;54749;47.850;9.002;2024-03-23T17:18:10;95467.69;;;7.34
67966;BMP280;54749;47.850;9.002;2024-03-23T17:20:36;95463.22;;;7.37
67966;BMP280;54749;47.850;9.002;2024-03-23T17:23:02;95468.97;;;7.39
67966;BMP280;54749;47.850;9.002;2024-03-23T17:25:28;95465.84;;;7.36
67966;BMP280;54749;47.850;9.002;2024-03-23T17:27:54;95461.84;;;7.34
67966;BMP280;54749;47.850;9.002;2024-03-23T17:30:20;95466.66;;;7.36
67966;BMP280;54749;47.850;9.002;2024-03-23T17:32:47;95478.53;;;7.34
67966;BMP280;54749;47.850;9.002;2024-03-23T17:35:13;95498.06;;;7.31
67966;BMP280;54749;47.850;9.002;2024-03-23T17:37:41;95474.47;;;7.21
67966;BMP280;54749;47.850;9.002;2024-03-23T17:40:08;95536.69;;;6.83
67966;BMP280;54749;47.850;9.002;2024-03-23T17:42:35;95529.69;;;6.15
67966;BMP280;54749;47.850;9.002;2024-03-23T17:45:02;95514.84;;;5.76
67966;BMP280;54749;47.850;9.002;2024-03-23T18:54:06;95545.41;;;3.94
67966;BMP280;54749;47.850;9.002;2024-03-23T18:56:32;95539.78;;;3.91
67966;BMP280;54749;47.850;9.002;2024-03-23T18:58:58;95532.47;;;3.88
67966;BMP280;54749;47.850;9.002;2024-03-23T19:01:24;95529.25;;;3.86
67966;BMP280;54749;47.850;9.002;2024-03-23T19:03:50;95522.75;;;3.84
67966;BMP280;54749;47.850;9.002;2024-03-23T19:06:16;95537.00;;;3.82
67966;BMP280;54749;47.850;9.002;2024-03-23T19:08:42;95535.44;;;3.81
67966;BMP280;54749;47.850;9.002;2024-03-23T19:11:08;95541.31;;;3.80
67966;BMP280;54749;47.850;9.002;2024-03-23T19:13:35;95541.47;;;3.77
67966;BMP280;54749;47.850;9.002;2024-03-23T19:16:02;95535.03;;;3.73
67966;BMP280;54749;47.850;9.002;2024-03-23T22:04:50;95462.16;;;4.07
67966;BMP280;54749;47.850;9.002;2024-03-23T22:07:17;95466.63;;;4.02
67966;BMP280;54749;47.850;9.002;2024-03-23T22:09:43;95471.91;;;3.98
67966;BMP280;54749;47.850;9.002;2024-03-23T22:12:10;95464.28;;;4.00
67966;BMP280;54749;47.850;9.002;2024-03-23T22:14:36;95453.50;;;3.99
67966;BMP280;54749;47.850;9.002;2024-03-23T22:17:03;95460.19;;;3.99
67966;BMP280;54749;47.850;9.002;2024-03-23T22:19:29;95455.28;;;3.97
67966;BMP280;54749;47.850;9.002;2024-03-23T22:21:55;95448.50;;;3.99
67966;BMP280;54749;47.850;9.002;2024-03-23T22:24:21;95451.72;;;4.01
67966;BMP280;54749;47.850;9.002;2024-03-23T22:26:48;95446.38;;;4.07
67966;BMP280;54749;47.850;9.002;2024-03-23T22:29:14;95451.19;;;4.10
67966;BMP280;54749;47.850;9.002;2024-03-23T22:31:41;95458.56;;;4.11
67966;BMP280;54749;47.850;9.002;2024-03-23T22:34:07;95448.56;;;4.11
67966;BMP280;54749;47.850;9.002;2024-03-23T22:36:33;95452.00;;;4.10
67966;BMP280;54749;47.850;9.002;2024-03-23T22:38:59;95443.41;;;4.01
67966;BMP280;54749;47.850;9.002;2024-03-23T22:41:25;95448.50;;;3.99
67966;BMP280;54749;47.850;9.002;2024-03-23T22:43:51;95448.69;;;3.96